Time;durP1;ratioP1;P1;durP2;ratioP2;P2;SDS_P1;SDS_P2;PMS_P1;PMS_P2;Temp;Humidity;BMP_temperature;BMP_pressure;BME280_temperature;BME280_humidity;BME280_pressure;Samples;Min_cycle;Max_cycle;Signal;HPM_P1;HPM_P2
2022/09/27 00:01:55;;;;;;;;;2.00;2.00;;;;;13.01;64.90;99761.44;5012015;28;45610;-60
2022/09/27 00:04:21;;;;;;;;;1.00;1.00;;;;;12.90;65.41;99759.59;5012038;28;45521;-60
2022/09/27 00:06:46;;;;;;;;;2.25;2.25;;;;;12.87;65.46;99763.69;5012132;28;45873;-60
2022/09/27 00:09:12;;;;;;;;;2.50;2.50;;;;;12.90;65.73;99770.63;5009805;28;46187;-61
2022/09/27 00:11:39;;;;;;;;;2.50;1.50;;;;;12.89;65.71;99768.94;4982235;28;46463;-61
2022/09/27 00:14:05;;;;;;;;;1.00;1.00;;;;;12.61;65.77;99730.25;4993588;28;45482;-60
2022/09/27 00:16:33;;;;;;;;;1.40;1.20;;;;;12.92;65.78;99765.69;4994455;28;45541;-60
2022/09/27 00:18:59;;;;;;;;;1.60;1.60;;;;;12.82;65.99;99757.28;4996449;28;45675;-60
2022/09/27 00:21:25;;;;;;;;;2.40;1.00;;;;;12.53;66.41;99721.59;4996019;28;45721;-60
2022/09/27 00:23:50;;;;;;;;;2.50;2.50;;;;;12.75;66.69;99762.94;4996424;28;45646;-59
2022/09/27 00:26:16;;;;;;;;;1.75;1.00;;;;;12.73;66.58;99765.13;4996307;28;45273;-59
2022/09/27 00:28:41;;;;;;;;;2.25;2.00;;;;;12.54;67.16;99748.84;4995004;28;45469;-59
2022/09/27 00:31:24;;;;;;;;;1.00;1.00;;;;;12.44;67.43;99743.19;4995789;28;45826;-59
2022/09/27 00:33:50;;;;;;;;;1.00;1.00;;;;;12.67;68.07;99777.13;4994528;28;45464;-59
2022/09/27 00:36:16;;;;;;;;;2.00;2.00;;;;;12.65;67.97;99788.38;4994597;28;45578;-58
2022/09/27 00:38:42;;;;;;;;;1.80;1.80;;;;;12.69;68.05;99789.56;4996293;28;45403;-60
2022/09/27 00:41:15;;;;;;;;;6.00;2.00;;;;;12.76;67.56;99803.19;4995747;28;46395;-59
2022/09/27 00:43:53;;;;;;;;;2.00;2.00;;;;;12.44;68.05;99743.19;4995034;28;45639;-59
2022/09/27 00:46:38;;;;;;;;;2.60;2.00;;;;;12.64;68.58;99792.22;4996245;28;45449;-59
2022/09/27 00:49:21;;;;;;;;;1.00;1.00;;;;;12.60;67.84;99785.56;4995094;28;45483;-60
2022/09/27 00:51:48;;;;;;;;;2.80;1.40;;;;;12.50;67.86;99772.47;4993565;28;45575;-59
2022/09/27 00:54:14;;;;;;;;;1.80;1.80;;;;;12.59;68.63;99792.13;4977769;28;45394;-59
2022/09/27 00:56:39;;;;;;;;;5.25;3.25;;;;;12.59;68.31;99794.88;4994611;28;45475;-59
2022/09/27 00:59:15;;;;;;;;;1.25;1.25;;;;;12.57;68.38;99797.91;4978043;28;45646;-59
2022/09/27 01:01:40;;;;;;;;;1.20;1.00;;;;;12.60;68.45;99802.91;4978290;28;45446;-60
2022/09/27 01:04:07;;;;;;;;;3.75;2.50;;;;;12.62;68.88;99810.91;4994291;28;45499;-60
2022/09/27 01:06:33;;;;;;;;;2.00;2.00;;;;;12.66;68.01;99811.25;4995275;28;45347;-60
2022/09/27 01:08:59;;;;;;;;;3.50;2.25;;;;;12.57;68.48;99797.91;4996125;28;45415;-60
2022/09/27 01:11:42;;;;;;;;;4.00;1.00;;;;;12.63;68.09;99804.31;4995547;28;45380;-59
2022/09/27 01:14:13;;;;;;;;;3.80;1.60;;;;;12.64;68.30;99796.91;4995592;28;45334;-60
2022/09/27 01:17:08;;;;;;;;;1.20;1.20;;;;;12.62;68.17;99808.16;4995380;28;45428;-60
2022/09/27 01:19:39;;;;;;;;;3.00;1.80;;;;;12.54;67.89;99809.41;4953151;28;45534;-60
2022/09/27 01:22:27;;;;;;;;;1.60;1.60;;;;;12.59;67.93;99805.88;4962135;28;46697;-59
2022/09/27 01:25:19;;;;;;;;;2.00;2.00;;;;;12.57;68.54;99813.56;4969841;28;45865;-60
2022/09/27 01:28:29;;;;;;;;;2.80;2.80;;;;;12.55;68.15;99808.31;4963466;28;45460;-60
2022/09/27 01:31:06;;;;;;;;;2.00;2.00;;;;;12.56;68.19;99818.25;4957164;28;45546;-60
2022/09/27 01:33:50;;;;;;;;;1.00;1.00;;;;;12.63;67.60;99814.50;5009371;28;45469;-59
2022/09/27 01:36:19;;;;;;;;;1.00;1.00;;;;;12.64;67.79;99818.94;5010740;28;45494;-60
2022/09/27 01:38:55;;;;;;;;;2.40;1.60;;;;;12.59;67.70;99812.25;4997678;28;45578;-59
2022/09/27 01:41:44;;;;;;;;;2.00;2.00;;;;;12.26;68.06;99764.31;4990055;28;45825;-60
2022/09/27 01:44:31;;;;;;;;;1.40;1.40;;;;;12.48;68.16;99815.88;4990975;28;47312;-60
2022/09/27 01:47:02;;;;;;;;;4.80;1.60;;;;;11.68;68.17;99700.25;5010662;28;45343;-60
2022/09/27 01:49:39;;;;;;;;;3.20;1.40;;;;;12.40;68.67;99816.28;4990540;28;45565;-60
2022/09/27 01:52:05;;;;;;;;;2.80;2.80;;;;;12.30;68.13;99789.44;4992120;28;45652;-58
2022/09/27 01:54:39;;;;;;;;;1.80;0.80;;;;;12.49;68.34;99816.75;4993340;28;45417;-60
2022/09/27 01:57:05;;;;;;;;;3.60;2.40;;;;;12.46;68.42;99816.16;4994993;28;45480;-59
2022/09/27 01:59:35;;;;;;;;;1.25;1.25;;;;;12.46;68.33;99807.91;4977236;28;45377;-59
2022/09/27 02:02:04;;;;;;;;;3.40;1.80;;;;;12.49;68.07;99817.56;4995002;28;45518;-59
2022/09/27 02:04:30;;;;;;;;;2.80;2.00;;;;;12.53;68.19;99815.16;4980799;28;46327;-59
2022/09/27 02:07:05;;;;;;;;;3.20;2.40;;;;;12.54;68.17;99820.41;4997868;28;45349;-59
2022/09/27 02:09:44;;;;;;;;;3.20;2.00;;;;;12.49;68.19;99820.31;4997452;28;45465;-59
2022/09/27 02:12:12;;;;;;;;;3.00;3.00;;;;;12.37;68.52;99825.06;4981377;28;45578;-59
2022/09/27 02:14:49;;;;;;;;;3.20;1.00;;;;;12.17;68.14;99785.06;4980502;28;45460;-59
2022/09/27 02:17:41;;;;;;;;;0.60;0.60;;;;;12.34;68.81;99820.88;4980773;28;45508;-59
2022/09/27 02:20:27;;;;;;;;;2.20;2.20;;;;;12.17;69.20;99782.31;4997510;28;45394;-59
2022/09/27 02:23:40;;;;;;;;;1.80;1.00;;;;;12.33;68.40;99806.28;4996698;28;45483;-59
2022/09/27 02:26:18;;;;;;;;;3.60;1.60;;;;;12.36;68.31;99795.84;4980485;28;45614;-59
2022/09/27 02:29:01;;;;;;;;;1.20;0.00;;;;;12.38;68.59;99802.78;4996409;28;45903;-59
2022/09/27 02:31:26;;;;;;;;;1.00;1.00;;;;;12.34;68.52;99796.13;4997498;28;45434;-59
2022/09/27 02:34:00;;;;;;;;;1.00;1.00;;;;;12.27;68.99;99800.94;4980374;28;45520;-59
2022/09/27 02:36:26;;;;;;;;;0.20;0.20;;;;;12.26;68.97;99802.00;4996803;28;46275;-59
2022/09/27 02:38:51;;;;;;;;;1.25;1.00;;;;;12.02;69.14;99771.81;4997653;28;45509;-59
2022/09/27 02:41:18;;;;;;;;;0.00;0.00;;;;;12.23;69.20;99813.50;4998291;28;45355;-59
2022/09/27 02:43:46;;;;;;;;;0.00;0.00;;;;;11.97;69.09;99763.47;4998300;28;45504;-59
2022/09/27 02:46:43;;;;;;;;;1.80;0.40;;;;;12.28;69.16;99810.84;4997770;28;45618;-60
2022/09/27 02:49:46;;;;;;;;;3.00;1.60;;;;;12.31;69.13;99810.34;4996633;28;45308;-59
2022/09/27 02:52:14;;;;;;;;;0.60;0.40;;;;;12.32;69.02;99807.38;4997507;28;45345;-59
2022/09/27 02:54:51;;;;;;;;;0.00;0.00;;;;;12.25;69.21;99805.84;4998153;28;45659;-59
2022/09/27 02:57:24;;;;;;;;;1.00;1.00;;;;;12.19;69.64;99805.75;4997724;28;46391;-59
2022/09/27 03:00:10;;;;;;;;;1.40;0.40;;;;;12.12;70.09;99804.22;4997001;28;45273;-59
2022/09/27 03:03:10;;;;;;;;;1.00;1.00;;;;;12.12;70.15;99810.53;4982215;28;45379;-59
2022/09/27 03:05:50;;;;;;;;;4.20;1.40;;;;;12.18;70.33;99814.25;4998083;28;45622;-59
2022/09/27 03:08:16;;;;;;;;;1.60;1.00;;;;;12.20;69.90;99806.56;4979916;28;45675;-59
2022/09/27 03:10:41;;;;;;;;;1.00;1.00;;;;;12.13;70.20;99800.38;4997846;28;45335;-59
2022/09/27 03:13:07;;;;;;;;;0.50;0.50;;;;;12.16;70.40;99808.97;4939952;28;45934;-59
2022/09/27 03:15:32;;;;;;;;;1.00;1.00;;;;;12.16;70.59;99808.13;4993009;28;45427;-60
2022/09/27 03:17:59;;;;;;;;;1.25;0.00;;;;;12.14;70.35;99799.31;5002414;28;46094;-59
2022/09/27 03:20:24;;;;;;;;;2.80;2.00;;;;;12.19;70.49;99794.75;4991811;28;45503;-60
2022/09/27 03:22:50;;;;;;;;;2.00;2.00;;;;;12.16;70.80;99802.63;4993174;28;45448;-61
2022/09/27 03:25:15;;;;;;;;;2.50;0.50;;;;;11.70;71.02;99748.41;4993076;28;45567;-60
2022/09/27 03:27:42;;;;;;;;;0.00;0.00;;;;;12.12;71.35;99802.28;4991342;28;45683;-60
2022/09/27 03:30:09;;;;;;;;;2.00;1.20;;;;;12.14;70.94;99791.91;5001076;28;45461;-59
2022/09/27 03:32:35;;;;;;;;;0.00;0.00;;;;;12.18;70.59;99792.25;4992856;28;45418;-59
2022/09/27 03:35:00;;;;;;;;;0.50;0.50;;;;;12.28;70.66;99806.19;4993372;28;45577;-59
2022/09/27 03:37:28;;;;;;;;;1.50;1.00;;;;;12.22;70.43;99787.91;4992358;28;45741;-59
2022/09/27 03:39:53;;;;;;;;;0.80;0.80;;;;;12.31;70.39;99808.44;4992419;28;45425;-59
2022/09/27 03:42:19;;;;;;;;;1.00;1.00;;;;;12.39;70.46;99809.13;5001413;28;45494;-59
2022/09/27 03:44:45;;;;;;;;;2.50;1.25;;;;;12.41;70.38;99812.47;4994449;28;45689;-59
2022/09/27 03:47:10;;;;;;;;;1.00;1.00;;;;;12.35;70.49;99811.53;4996885;28;46300;-59
2022/09/27 03:49:35;;;;;;;;;4.00;1.00;;;;;12.36;70.46;99809.59;4996528;28;45335;-60
2022/09/27 03:52:01;;;;;;;;;1.75;0.50;;;;;12.34;70.85;99812.63;4996546;28;45520;-59
2022/09/27 03:54:27;;;;;;;;;2.00;1.00;;;;;12.26;70.59;99805.59;4995725;28;45328;-59
2022/09/27 03:56:52;;;;;;;;;1.20;1.20;;;;;12.21;70.70;99791.72;4996452;28;45832;-59
2022/09/27 03:59:18;;;;;;;;;2.00;1.00;;;;;12.13;70.25;99770.97;4996802;28;45337;-58
2022/09/27 04:01:44;;;;;;;;;0.50;0.50;;;;;12.37;70.29;99801.09;4997378;28;45235;-60
2022/09/27 04:04:09;;;;;;;;;0.00;0.00;;;;;12.12;70.30;99771.22;4997221;28;45208;-59
2022/09/27 04:06:35;;;;;;;;;2.00;1.00;;;;;12.31;70.32;99791.94;4996436;28;46520;-60
2022/09/27 04:09:01;;;;;;;;;1.75;0.75;;;;;12.30;70.17;99794.94;4996876;28;45306;-60
2022/09/27 04:11:27;;;;;;;;;0.00;0.00;;;;;12.24;70.41;99780.25;4996721;28;45456;-60
2022/09/27 04:13:52;;;;;;;;;1.00;1.00;;;;;12.27;70.48;99792.69;4995581;28;45855;-61
2022/09/27 04:16:18;;;;;;;;;0.75;0.75;;;;;12.06;70.48;99765.63;4996517;28;45724;-60
2022/09/27 04:18:44;;;;;;;;;1.00;0.50;;;;;12.26;70.30;99783.59;4996390;28;45525;-60
2022/09/27 04:21:09;;;;;;;;;1.75;0.25;;;;;12.29;70.67;99791.38;4992111;28;45407;-61
2022/09/27 04:23:35;;;;;;;;;4.80;0.20;;;;;12.24;70.63;99776.66;4960725;28;46194;-61
2022/09/27 04:26:01;;;;;;;;;1.00;1.00;;;;;12.27;70.33;99787.19;4990800;28;46079;-61
2022/09/27 04:28:28;;;;;;;;;1.60;0.80;;;;;11.86;70.25;99724.78;4991096;28;45398;-61
2022/09/27 04:30:54;;;;;;;;;2.00;0.80;;;;;12.16;70.65;99784.22;4991987;28;45442;-60
2022/09/27 04:33:19;;;;;;;;;0.00;0.00;;;;;12.18;70.84;99784.00;4999548;28;45693;-60
2022/09/27 04:38:29;;;;;;;;;1.00;1.00;;;;;11.87;70.84;99739.34;5011737;28;45534;-60
2022/09/27 04:40:54;;;;;;;;;2.00;0.00;;;;;11.92;71.00;99770.53;4999878;28;45443;-60
2022/09/27 04:43:20;;;;;;;;;1.00;0.50;;;;;11.99;71.32;99784.16;4991859;28;45569;-60
2022/09/27 04:45:46;;;;;;;;;2.00;1.00;;;;;11.97;71.22;99772.56;5002853;28;46143;-60
2022/09/27 04:48:11;;;;;;;;;1.00;0.00;;;;;12.00;71.37;99780.31;5011338;28;45367;-60
2022/09/27 04:50:37;;;;;;;;;0.25;0.25;;;;;12.02;71.62;99788.31;5011329;28;45419;-58
2022/09/27 04:53:02;;;;;;;;;1.50;1.00;;;;;11.94;70.93;99759.28;4991914;28;45652;-60
2022/09/27 04:55:28;;;;;;;;;0.00;0.00;;;;;12.05;71.43;99782.34;4991504;28;47108;-61
2022/09/27 04:57:53;;;;;;;;;0.00;0.00;;;;;11.95;71.18;99771.13;5002086;28;45541;-60
2022/09/27 05:00:19;;;;;;;;;0.75;0.75;;;;;12.04;71.35;99783.44;4993526;28;45467;-60
2022/09/27 05:02:46;;;;;;;;;0.00;0.00;;;;;12.03;71.63;99790.88;5011261;28;45598;-59
2022/09/27 05:05:12;;;;;;;;;0.00;0.00;;;;;11.95;71.84;99763.72;5010964;28;45482;-60
2022/09/27 05:07:38;;;;;;;;;1.25;1.00;;;;;12.15;71.32;99784.47;5011103;28;45431;-60
2022/09/27 05:10:04;;;;;;;;;1.00;1.00;;;;;12.20;71.09;99779.91;5008226;28;45786;-60
2022/09/27 05:12:30;;;;;;;;;1.00;1.00;;;;;12.19;71.08;99783.75;5003252;28;45819;-61
2022/09/27 05:14:55;;;;;;;;;1.00;1.00;;;;;12.24;70.93;99779.41;4989488;28;47881;-60
2022/09/27 05:17:22;;;;;;;;;1.50;1.00;;;;;11.88;70.92;99730.03;4980521;28;45586;-63
2022/09/27 05:19:48;;;;;;;;;1.20;1.20;;;;;12.21;70.66;99783.47;4971665;28;45498;-60
2022/09/27 05:22:14;;;;;;;;;1.60;0.40;;;;;12.17;71.40;99774.06;4985942;28;45699;-59
2022/09/27 05:24:40;;;;;;;;;1.25;1.25;;;;;12.31;72.10;99788.34;5010837;28;46419;-60
2022/09/27 05:27:07;;;;;;;;;1.00;1.00;;;;;12.37;73.06;99792.84;5010302;28;45463;-60
2022/09/27 05:29:32;;;;;;;;;0.60;0.60;;;;;12.36;73.18;99793.94;5009535;28;45576;-60
2022/09/27 05:31:58;;;;;;;;;2.75;2.00;;;;;12.36;73.37;99784.84;5009636;28;45348;-60
2022/09/27 05:34:23;;;;;;;;;1.00;1.00;;;;;12.43;73.15;99780.03;5009338;28;45554;-60
2022/09/27 05:36:49;;;;;;;;;5.25;3.25;;;;;12.41;72.66;99790.44;5010323;28;45450;-61
2022/09/27 05:39:16;;;;;;;;;2.00;2.00;;;;;12.24;73.04;99765.66;5007950;28;45467;-60
2022/09/27 05:41:42;;;;;;;;;2.20;1.00;;;;;12.29;72.74;99796.88;4991654;28;45463;-60
2022/09/27 05:44:07;;;;;;;;;2.80;2.80;;;;;12.33;73.21;99802.72;4973202;28;45583;-60
2022/09/27 05:46:33;;;;;;;;;1.00;1.00;;;;;12.34;72.76;99798.88;5002681;28;45911;-60
2022/09/27 05:48:59;;;;;;;;;2.50;2.50;;;;;12.22;72.80;99790.66;5010749;28;45522;-60
2022/09/27 05:51:24;;;;;;;;;2.00;2.00;;;;;12.38;72.25;99797.28;5010683;28;45542;-60
2022/09/27 05:53:50;;;;;;;;;1.75;1.00;;;;;12.38;72.44;99789.03;5009070;28;47078;-60
2022/09/27 05:56:16;;;;;;;;;4.50;1.50;;;;;12.41;72.43;99790.44;5010122;28;45465;-60
2022/09/27 05:58:41;;;;;;;;;2.50;1.75;;;;;12.09;72.36;99735.94;5009194;28;45475;-60
2022/09/27 06:01:07;;;;;;;;;1.75;1.25;;;;;12.45;71.98;99795.19;5010682;28;45412;-60
2022/09/27 06:03:33;;;;;;;;;1.20;1.00;;;;;12.39;72.24;99784.38;5008683;28;45677;-59
2022/09/27 06:06:05;;;;;;;;;0.40;0.40;;;;;12.37;72.03;99778.28;5010626;28;45431;-60
2022/09/27 06:08:35;;;;;;;;;1.00;1.00;;;;;12.38;72.12;99774.44;5009099;28;45499;-59
2022/09/27 06:11:03;;;;;;;;;0.80;0.80;;;;;12.34;71.77;99771.34;5007647;28;45482;-59
2022/09/27 06:13:28;;;;;;;;;2.60;1.40;;;;;12.40;71.75;99777.78;4996416;28;46242;-61
2022/09/27 06:15:54;;;;;;;;;3.00;1.50;;;;;12.23;71.74;99756.59;4989228;28;45826;-59
2022/09/27 06:18:20;;;;;;;;;1.00;0.25;;;;;12.36;71.89;99784.84;4990629;28;45452;-60
2022/09/27 06:20:45;;;;;;;;;3.00;1.50;;;;;12.10;71.65;99757.69;4991123;28;45396;-60
2022/09/27 06:23:15;;;;;;;;;3.00;2.00;;;;;12.19;72.30;99782.91;4993749;28;45582;-60
2022/09/27 06:25:41;;;;;;;;;0.00;0.00;;;;;12.19;72.12;99792.00;5010588;28;45702;-60
2022/09/27 06:28:07;;;;;;;;;2.75;1.50;;;;;12.19;72.37;99785.66;5010150;28;45801;-60
2022/09/27 06:30:32;;;;;;;;;3.80;1.40;;;;;12.07;72.42;99759.03;4992238;28;45606;-60
2022/09/27 06:32:59;;;;;;;;;2.00;1.00;;;;;12.32;72.49;99788.09;5009929;28;45435;-63
2022/09/27 06:35:25;;;;;;;;;3.60;3.60;;;;;12.36;72.04;99776.59;5008179;28;46756;-57
2022/09/27 06:37:51;;;;;;;;;1.60;1.60;;;;;12.42;72.13;99781.94;5008607;28;45544;-59
2022/09/27 06:40:17;;;;;;;;;2.40;1.00;;;;;11.91;72.02;99713.06;5009001;28;45479;-60
2022/09/27 06:42:43;;;;;;;;;2.00;1.00;;;;;12.38;72.03;99788.19;5009618;28;46645;-60
2022/09/27 06:45:11;;;;;;;;;4.50;2.25;;;;;12.18;72.55;99759.22;5009822;28;45344;-58
2022/09/27 06:47:47;;;;;;;;;1.00;1.00;;;;;12.16;72.10;99758.63;5008039;28;45434;-57
2022/09/27 06:50:13;;;;;;;;;3.40;2.40;;;;;12.32;72.11;99770.75;4993543;28;45657;-59
2022/09/27 06:52:46;;;;;;;;;1.00;1.00;;;;;12.26;71.84;99756.06;5012985;28;46506;-60
2022/09/27 06:55:11;;;;;;;;;1.00;1.00;;;;;12.49;71.59;99781.78;5028034;28;45882;-59
2022/09/27 07:00:25;;;;;;;;;1.00;1.00;;;;;12.52;71.37;99784.03;5013597;28;45396;-56
2022/09/27 07:02:57;;;;;;;;;2.00;1.20;;;;;12.16;71.12;99739.38;5011287;28;46272;-59
2022/09/27 07:05:25;;;;;;;;;1.00;1.00;;;;;12.51;71.07;99790.63;5011995;28;45745;-58
2022/09/27 07:07:54;;;;;;;;;1.00;1.00;;;;;12.47;71.03;99789.47;5012877;28;45440;-58
2022/09/27 07:10:20;;;;;;;;;2.00;1.00;;;;;12.34;70.68;99798.88;5011597;28;45368;-59
2022/09/27 07:12:47;;;;;;;;;2.25;2.00;;;;;12.41;71.48;99799.53;5005376;28;47363;-59
2022/09/27 07:15:13;;;;;;;;;0.00;0.00;;;;;12.54;70.86;99803.88;4991742;28;46074;-60
2022/09/27 07:17:38;;;;;;;;;2.00;2.00;;;;;12.55;70.58;99804.75;4993057;28;45449;-58
2022/09/27 07:20:04;;;;;;;;;1.25;1.00;;;;;12.53;71.08;99804.97;4993384;28;45505;-59
2022/09/27 07:22:30;;;;;;;;;3.00;1.50;;;;;12.51;71.29;99809.06;4979225;28;46628;-61
2022/09/27 07:24:55;;;;;;;;;3.00;1.00;;;;;12.58;70.92;99821.59;4971601;28;45393;-60
2022/09/27 07:27:21;;;;;;;;;0.00;0.00;;;;;12.57;70.83;99811.66;4993459;28;45521;-60
2022/09/27 07:29:47;;;;;;;;;3.00;1.25;;;;;12.67;71.20;99813.75;4993108;28;45479;-60
2022/09/27 07:32:12;;;;;;;;;2.50;1.50;;;;;12.70;70.68;99817.94;4992378;28;46960;-61
2022/09/27 07:34:38;;;;;;;;;1.25;1.25;;;;;12.60;70.34;99799.31;4994479;28;45888;-60
2022/09/27 07:37:04;;;;;;;;;1.00;1.00;;;;;12.88;70.75;99836.97;5012714;28;45639;-62
2022/09/27 07:39:30;;;;;;;;;1.20;1.20;;;;;12.56;70.18;99771.47;5012815;28;45527;-62
2022/09/27 07:41:56;;;;;;;;;1.00;1.00;;;;;12.97;69.91;99831.88;5012081;28;45466;-61
2022/09/27 07:44:22;;;;;;;;;3.00;1.60;;;;;12.96;70.01;99841.22;5012725;28;45373;-62
2022/09/27 07:46:48;;;;;;;;;3.00;2.00;;;;;12.97;69.91;99833.81;5009569;28;46114;-61
2022/09/27 07:49:13;;;;;;;;;3.25;1.50;;;;;13.01;71.45;99843.22;5012413;28;45678;-62
2022/09/27 07:51:39;;;;;;;;;3.00;2.00;;;;;13.11;69.43;99843.41;5012056;28;45453;-61
2022/09/27 07:54:04;;;;;;;;;4.75;2.00;;;;;13.11;69.24;99834.28;5010589;28;45503;-61
2022/09/27 07:56:30;;;;;;;;;2.00;1.00;;;;;13.17;69.27;99855.31;4994548;28;46088;-60
2022/09/27 07:58:56;;;;;;;;;3.00;1.00;;;;;13.15;69.06;99843.72;4993771;28;45476;-60
2022/09/27 08:01:21;;;;;;;;;1.25;1.25;;;;;12.97;69.44;99833.81;5011787;28;46646;-60
2022/09/27 08:03:47;;;;;;;;;2.75;2.75;;;;;13.25;69.16;99859.59;5003752;28;45525;-60
2022/09/27 08:06:13;;;;;;;;;3.75;3.00;;;;;13.31;68.62;99853.06;4992727;28;45526;-60
2022/09/27 08:08:38;;;;;;;;;2.00;2.00;;;;;13.32;68.35;99865.75;4991367;28;45522;-60
2022/09/27 08:11:14;;;;;;;;;2.75;2.00;;;;;13.34;68.80;99869.09;4975394;28;47337;-61
2022/09/27 08:13:41;;;;;;;;;2.40;2.00;;;;;13.39;68.39;99871.94;4999294;28;45441;-58
2022/09/27 08:16:07;;;;;;;;;1.00;1.00;;;;;13.31;68.87;99861.34;4990203;28;45455;-60
2022/09/27 08:18:33;;;;;;;;;1.00;1.00;;;;;13.15;69.00;99847.31;4972856;28;45520;-60
2022/09/27 08:20:59;;;;;;;;;5.25;2.00;;;;;13.30;69.39;99870.69;4972268;28;45472;-60
2022/09/27 08:23:25;;;;;;;;;1.00;1.00;;;;;13.34;68.93;99868.28;4980856;28;45515;-60
2022/09/27 08:25:52;;;;;;;;;1.00;1.00;;;;;13.31;68.55;99860.50;4992123;28;45483;-60
2022/09/27 08:28:18;;;;;;;;;1.80;1.00;;;;;13.45;68.49;99870.06;4992049;28;45823;-62
2022/09/27 08:30:43;;;;;;;;;1.00;1.00;;;;;13.44;67.66;99867.59;4989962;28;45832;-59
2022/09/27 08:33:09;;;;;;;;;2.25;2.00;;;;;13.47;67.81;99878.13;4991251;28;45401;-60
2022/09/27 08:35:35;;;;;;;;;4.25;1.00;;;;;13.22;68.26;99832.53;4993456;28;45408;-62
2022/09/27 08:38:01;;;;;;;;;1.20;1.00;;;;;13.45;67.52;99872.84;4995089;28;45479;-61
2022/09/27 08:40:48;;;;;;;;;1.40;1.00;;;;;13.55;67.14;99877.69;4991261;28;46906;-60
2022/09/27 08:43:37;;;;;;;;;3.80;2.00;;;;;13.51;67.15;99884.81;5006264;28;45519;-61
2022/09/27 08:46:08;;;;;;;;;0.80;0.00;;;;;13.42;67.28;99889.88;4991951;28;45437;-62
2022/09/27 08:48:34;;;;;;;;;1.80;1.80;;;;;13.44;67.15;99893.22;5001833;28;45532;-60
2022/09/27 08:51:00;;;;;;;;;0.80;0.80;;;;;13.53;66.70;99893.66;4993166;28;46094;-61
2022/09/27 08:53:29;;;;;;;;;3.00;2.00;;;;;13.55;67.71;99884.06;4992905;28;45571;-60
2022/09/27 08:55:56;;;;;;;;;2.60;1.60;;;;;13.72;66.84;99896.16;4993820;28;45451;-61
2022/09/27 08:58:44;;;;;;;;;1.00;1.00;;;;;13.80;66.33;99898.47;5011465;28;45444;-61
2022/09/27 09:01:11;;;;;;;;;1.60;1.60;;;;;13.65;66.47;99854.94;5009431;28;45869;-58
2022/09/27 09:03:39;;;;;;;;;2.00;2.00;;;;;13.94;66.27;99893.41;5009521;28;45555;-57
2022/09/27 09:06:18;;;;;;;;;1.80;1.80;;;;;13.93;66.89;99891.75;4997622;28;45580;-54
2022/09/27 09:08:56;;;;;;;;;1.00;1.00;;;;;13.85;65.80;99883.91;4972695;28;45764;-55
2022/09/27 09:14:57;;;;;;;;;1.80;0.80;;;;;13.76;66.05;99889.03;4992529;28;45441;-60
2022/09/27 09:18:08;;;;;;;;;1.40;1.20;;;;;13.73;66.00;99900.56;4988939;28;45453;-54
2022/09/27 09:20:39;;;;;;;;;1.00;1.00;;;;;13.72;66.61;99893.38;4980527;28;45818;-55
2022/09/27 09:23:16;;;;;;;;;0.60;0.60;;;;;13.63;66.46;99888.31;4954671;28;46589;-58
2022/09/27 09:25:51;;;;;;;;;1.60;1.60;;;;;13.72;66.66;99887.88;5019293;28;45815;-61
2022/09/27 09:28:23;;;;;;;;;2.40;1.40;;;;;13.72;66.35;99882.34;5009428;28;45400;-56
2022/09/27 09:31:29;;;;;;;;;1.20;1.20;;;;;13.73;66.27;99860.06;5000538;28;45467;-59
2022/09/27 09:33:58;;;;;;;;;1.20;1.20;;;;;13.95;65.39;99871.09;4989070;28;45968;-61
2022/09/27 09:36:30;;;;;;;;;1.60;1.60;;;;;13.62;65.02;99820.47;4993081;28;45582;-58
2022/09/27 09:39:04;;;;;;;;;1.20;1.20;;;;;14.00;65.26;99880.53;5009384;28;45439;-59
2022/09/27 09:41:45;;;;;;;;;1.60;1.60;;;;;14.00;64.64;99867.56;4957483;28;46036;-58
2022/09/27 09:44:29;;;;;;;;;3.20;2.00;;;;;13.73;65.36;99815.94;4990617;28;45478;-56
2022/09/27 09:46:57;;;;;;;;;1.00;1.00;;;;;14.02;64.68;99850.75;4989693;28;45618;-57
2022/09/27 09:49:26;;;;;;;;;2.40;1.00;;;;;14.17;64.65;99855.63;4999546;28;45493;-57
2022/09/27 09:51:57;;;;;;;;;2.00;2.00;;;;;14.27;64.29;99850.22;5008676;28;45687;-58
2022/09/27 09:54:34;;;;;;;;;1.60;1.60;;;;;14.49;63.96;99852.97;4991373;28;45418;-60
2022/09/27 09:57:10;;;;;;;;;2.40;1.00;;;;;14.62;63.00;99848.13;4990071;28;45801;-56
2022/09/27 09:59:41;;;;;;;;;2.00;1.00;;;;;14.81;62.82;99811.84;4990888;28;45921;-56
2022/09/27 10:02:16;;;;;;;;;1.00;1.00;;;;;14.87;61.52;99795.06;4995111;28;46519;-58
2022/09/27 10:04:42;;;;;;;;;1.40;1.40;;;;;15.16;61.34;99830.63;5000664;28;46271;-59
2022/09/27 10:07:10;;;;;;;;;3.75;3.00;;;;;15.20;61.34;99822.66;5006952;28;45438;-60
2022/09/27 10:09:36;;;;;;;;;1.00;1.00;;;;;15.23;60.64;99815.75;4992545;28;45382;-56
2022/09/27 10:12:01;;;;;;;;;2.00;2.00;;;;;15.25;59.66;99816.31;5008296;28;45810;-57
2022/09/27 10:14:27;;;;;;;;;2.00;2.00;;;;;15.29;59.97;99823.84;4994749;28;45539;-59
2022/09/27 10:16:54;;;;;;;;;1.50;1.50;;;;;15.40;59.06;99821.13;4983317;28;45894;-58
2022/09/27 10:19:29;;;;;;;;;3.00;2.00;;;;;15.37;59.35;99810.59;4969472;28;45583;-61
2022/09/27 10:22:00;;;;;;;;;2.00;1.60;;;;;15.41;58.84;99808.97;4968949;28;45658;-59
2022/09/27 10:24:26;;;;;;;;;1.60;1.60;;;;;15.55;58.61;99817.63;4951272;28;52609;-63
2022/09/27 10:26:53;;;;;;;;;1.00;0.00;;;;;15.47;58.36;99807.88;4974434;28;45476;-63
2022/09/27 10:29:19;;;;;;;;;1.80;1.40;;;;;15.49;58.96;99815.91;4941264;28;46118;-60
2022/09/27 10:31:47;;;;;;;;;2.00;2.00;;;;;15.35;59.41;99810.88;4994161;28;45508;-62
2022/09/27 10:34:30;;;;;;;;;1.60;1.60;;;;;15.02;60.16;99776.94;4992331;28;45908;-59
2022/09/27 10:37:10;;;;;;;;;1.00;1.00;;;;;15.00;61.17;99812.28;4966073;28;46000;-59
2022/09/27 10:39:36;;;;;;;;;1.40;1.00;;;;;14.87;61.74;99830.97;4994128;28;45529;-60
2022/09/27 10:42:02;;;;;;;;;2.60;1.00;;;;;14.74;62.88;99817.59;4990645;28;45604;-54
2022/09/27 10:44:31;;;;;;;;;2.50;1.75;;;;;14.58;64.36;99841.44;4993647;28;46115;-57
2022/09/27 10:47:07;;;;;;;;;2.00;2.00;;;;;14.49;65.72;99830.03;4993864;28;45898;-58
2022/09/27 10:49:39;;;;;;;;;3.00;1.80;;;;;14.43;66.19;99839.34;4990927;28;45607;-59
2022/09/27 10:52:07;;;;;;;;;1.80;0.80;;;;;14.22;66.10;99841.88;4993669;28;46021;-57
2022/09/27 10:54:34;;;;;;;;;1.00;1.00;;;;;14.06;67.04;99841.72;4992347;28;47673;-59
2022/09/27 10:57:29;;;;;;;;;0.20;0.20;;;;;14.00;67.78;99831.72;4992122;28;45433;-56
2022/09/27 10:59:59;;;;;;;;;2.00;1.40;;;;;13.84;67.66;99811.38;4991954;28;45403;-59
2022/09/27 11:02:31;;;;;;;;;3.00;1.00;;;;;13.89;69.07;99841.78;4975106;28;45902;-53
2022/09/27 11:05:04;;;;;;;;;2.20;2.20;;;;;13.90;69.09;99840.69;4992301;28;47590;-57
2022/09/27 11:07:30;;;;;;;;;0.80;0.00;;;;;14.01;68.55;99844.41;4993190;28;45433;-56
2022/09/27 11:10:01;;;;;;;;;2.00;2.00;;;;;14.04;67.85;99852.16;4993669;28;45414;-58
2022/09/27 11:12:30;;;;;;;;;2.80;2.20;;;;;13.98;67.39;99844.09;4991826;28;45544;-59
2022/09/27 11:15:06;;;;;;;;;2.80;2.00;;;;;13.94;67.93;99824.47;4990418;28;46468;-58
2022/09/27 11:18:12;;;;;;;;;2.60;2.60;;;;;13.97;68.29;99823.94;4991732;28;45462;-56
2022/09/27 11:20:47;;;;;;;;;1.00;1.00;;;;;13.41;66.32;99736.63;4992942;28;45401;-56
2022/09/27 11:23:35;;;;;;;;;2.00;2.00;;;;;13.94;66.92;99822.53;4960714;28;45444;-56
2022/09/27 11:26:07;;;;;;;;;3.00;2.00;;;;;13.94;66.61;99828.03;4977584;28;47469;-58
2022/09/27 11:28:39;;;;;;;;;3.00;2.20;;;;;13.94;67.29;99830.78;4976999;28;45462;-60
2022/09/27 11:31:17;;;;;;;;;1.00;1.00;;;;;14.03;67.05;99833.13;4975206;28;45386;-59
2022/09/27 11:34:07;;;;;;;;;1.00;1.00;;;;;14.02;66.83;99840.56;4989744;28;45658;-60
2022/09/27 11:36:59;;;;;;;;;0.80;0.60;;;;;13.81;66.41;99839.44;4990327;28;45793;-58
2022/09/27 11:39:28;;;;;;;;;3.60;2.80;;;;;13.54;67.70;99801.59;4970737;28;45482;-58
2022/09/27 11:42:13;;;;;;;;;1.80;1.80;;;;;13.41;68.33;99776.03;4992671;28;45449;-59
2022/09/27 11:44:51;;;;;;;;;2.00;2.00;;;;;13.72;66.78;99830.78;4992622;28;45508;-58
2022/09/27 11:47:40;;;;;;;;;0.20;0.20;;;;;13.80;67.82;99824.00;4992392;28;45620;-59
2022/09/27 11:50:18;;;;;;;;;2.40;1.60;;;;;13.85;67.25;99829.59;4989670;28;45624;-59
2022/09/27 11:52:43;;;;;;;;;1.60;1.60;;;;;14.01;66.11;99815.97;4992231;28;45646;-59
2022/09/27 11:55:18;;;;;;;;;1.75;0.50;;;;;14.06;65.34;99805.84;4990319;28;45799;-59
2022/09/27 11:57:52;;;;;;;;;0.80;0.80;;;;;14.43;65.02;99809.81;4992359;28;46901;-58
2022/09/27 12:00:23;;;;;;;;;2.00;1.00;;;;;15.38;63.42;99812.28;4992515;28;45443;-59